Latest Coastal Weather Observations for Orbost

IDV60701

Issued at 8:15 am EDT Friday 24 October 2014 (issued every 10 minutes, with the page automatically refreshed every 10 minutes)

About coastal observations | Map of coastal stations | Coastal observations for VIC | Marine services | Other Formats
Station Details ID: 084145 Name: ORBOST Lat: -37.69 Lon: 148.47 Height: 62.65 m
Data from the previous 72 hours. | See also: Recent months at Orbost
Date/Time
EDT
Temp

°C
Wind Pressure Rain
since 9am
mm
Weather Cloud Vis
km
Sea
Height
m
Swell
Dir
 
Speed
knots
Gust
knots
hPa Trend Height
m
Period
s
Dir
24/08:00am 14.9 W 0 1 1014.3 - 0.8 - - - - - - -
24/07:30am 13.8 NNW 1 2 1014.6 - 0.8 - - - - - - -
24/07:00am 13.8 NNE 1 2 1014.5 - 0.8 - - - - - - -
24/06:30am 14.1 CALM 0 0 1014.6 - 0.8 - - - - - - -
24/06:00am 14.3 CALM 0 0 1014.7 - 0.8 - - - - - - -
24/05:30am 14.4 NNW 2 3 1014.6 - 0.8 - - - - - - -
24/05:00am 14.2 N 2 3 1014.9 - 0.8 - - - - - - -
24/04:30am 14.6 WNW 2 5 1015.2 - 0.8 - - - - - - -
24/04:00am 14.7 WNW 2 3 1015.4 - 0.0 - - - - - - -
24/03:30am 14.6 CALM 0 0 1015.8 - 0.0 - - - - - - -
24/03:00am 14.7 CALM 0 0 1016.4 - 0.0 - - - - - - -
24/02:30am 14.9 CALM 0 0 1017.0 - 0.0 - - - - - - -
24/02:00am 15.2 CALM 0 2 1017.3 - 0.0 - - - - - - -
24/01:30am 15.5 CALM 0 0 1017.9 - 0.0 - - - - - - -
24/01:00am 15.4 ESE 1 2 1018.2 - 0.0 - - - - - - -
24/12:30am 16.0 SE 2 3 1018.8 - 0.0 - - - - - - -
24/12:00am 16.0 SE 1 2 1019.1 - 0.0 - - - - - - -
 
Date/Time
EDT
Temp

°C
Wind Pressure Rain
since 9am
mm
Weather Cloud Vis
km
Sea
Height
m
Swell
Dir
 
Speed
knots
Gust
knots
hPa Trend Height
m
Period
s
Dir
23/11:30pm 16.1 SSE 2 3 1019.3 - 0.0 - - - - - - -
23/11:00pm 16.0 E 1 2 1019.4 - 0.0 - - - - - - -
23/10:30pm 16.0 CALM 0 0 1019.7 - 0.0 - - - - - - -
23/10:00pm 15.9 E 1 3 1019.9 - 0.0 - - - - - - -
23/09:30pm 15.9 ESE 2 4 1019.9 - 0.0 - - - - - - -
23/09:00pm 15.9 ESE 2 4 1019.9 - 0.0 - - - - - - -
23/08:30pm 15.8 SE 2 4 1020.0 - 0.0 - - - - - - -
23/08:00pm 15.9 SE 2 5 1020.0 - 0.0 - - - - - - -
23/07:30pm 15.9 SE 2 4 1019.9 - 0.0 - - - - - - -
23/07:00pm 16.0 SE 2 4 1020.2 - 0.0 - - - - - - -
23/06:30pm 16.1 ESE 3 5 1019.6 - 0.0 - - - - - - -
23/06:00pm 16.2 SE 3 7 1019.8 - 0.0 - - - - - - -
23/05:30pm 16.4 ESE 4 9 1019.6 - 0.0 - - - - - - -
23/05:00pm 16.3 ESE 4 7 1019.4 - 0.0 - - - - - - -
23/04:30pm 16.7 SE 5 10 1019.6 - 0.0 - - - - - - -
23/04:00pm 16.9 SE 5 10 1019.5 - 0.0 - - - - - - -
23/03:30pm 17.2 SSE 5 10 1019.6 - 0.0 - - - - - - -
23/03:00pm 17.4 SSE 5 11 1019.6 - 0.0 - - - - - - -
23/02:30pm 17.6 SSE 5 8 1019.9 - 0.0 - - - - - - -
23/02:00pm 17.9 SSE 6 9 1020.2 - 0.0 - - - - - - -
23/01:30pm 17.9 S 5 8 1020.4 - 0.0 - - - - - - -
23/01:00pm 17.9 S 5 8 1020.3 - 0.0 - - - - - - -
23/12:30pm 18.4 S 6 9 1020.3 - 0.0 - - - - - - -
23/12:00pm 18.7 S 5 7 1020.6 - 0.0 - - - - - - -
23/11:30am 18.0 SSW 7 10 1020.6 - 0.0 - - - - - - -
23/11:00am 18.5 SSW 5 9 1020.5 - 0.0 - - - - - - -
23/10:30am 18.8 S 3 8 1020.4 - 0.0 - - - - - - -
23/10:00am 18.3 S 5 7 1020.2 - 0.0 - - - - - - -
23/09:30am 18.7 S 5 8 1020.0 - 0.0 - - - - - - -
23/09:00am 18.7 SW 4 7 1019.6 - 0.6 - - - - - - -
23/08:30am 18.6 SSW 4 7 1019.1 - 0.6 - - - - - - -
23/08:00am 18.5 SW 5 7 1018.6 - 0.6 - - - - - - -
23/07:30am 18.2 WSW 8 13 1017.9 - 0.6 - - - - - - -
23/07:00am 17.1 W 6 12 1016.9 - 0.6 - - - - - - -
23/06:30am 17.9 ENE 4 6 1015.4 - 0.6 - - - - - - -
23/06:00am 18.7 NE 5 9 1016.1 - 0.6 Recent precip. - - - - - -
23/05:30am 17.6 N 6 10 1017.8 - 0.6 - - - - - - -
23/05:00am 18.2 W 5 9 1017.6 - 0.0 - - - - - - -
23/04:30am 18.4 NW 5 9 1017.3 - 0.0 - - - - - - -
23/04:00am 16.4 WNW 3 6 1016.9 - 0.0 - - - - - - -
23/03:30am 17.2 N 4 4 1015.8 - 0.0 - - - - - - -
23/03:00am 16.5 ESE 3 5 1016.0 - 0.0 - - - - - - -
23/02:30am 18.8 NNW 3 5 1016.1 - 0.0 - - - - - - -
23/02:00am 17.6 NNW 1 3 1015.8 - 0.0 - - - - - - -
23/01:30am 17.8 NNW 2 3 1015.6 - 0.0 - - - - - - -
23/01:00am 16.5 W 3 6 1015.6 - 0.0 - - - - - - -
23/12:30am 17.4 WNW 1 3 1015.8 - 0.0 - - - - - - -
23/12:00am 17.0 E 1 4 1016.3 - 0.0 - - - - - - -
 
Date/Time
EDT
Temp

°C
Wind Pressure Rain
since 9am
mm
Weather Cloud Vis
km
Sea
Height
m
Swell
Dir
 
Speed
knots
Gust
knots
hPa Trend Height
m
Period
s
Dir
22/11:30pm 18.2 CALM 0 0 1016.8 - 0.0 - - - - - - -
22/11:00pm 18.3 CALM 0 0 1016.7 - 0.0 - - - - - - -
22/10:30pm 17.2 N 3 3 1016.5 - 0.0 - - - - - - -
22/10:00pm 18.4 CALM 0 0 1016.7 - 0.0 - - - - - - -
22/09:30pm 19.8 CALM 0 0 1016.8 - 0.0 - - - - - - -
22/09:00pm 19.6 CALM 0 2 1016.8 - 0.0 - - - - - - -
22/08:30pm 20.3 E 1 3 1016.6 - 0.0 - - - - - - -
22/08:00pm 21.4 ENE 2 4 1016.5 - 0.0 - - - - - - -
22/07:30pm 20.9 E 3 4 1016.4 - 0.0 - - - - - - -
22/07:00pm 22.8 ESE 3 5 1016.3 - 0.0 - - - - - - -
22/06:30pm 24.0 SE 3 5 1016.1 - 0.0 - - - - - - -
22/06:00pm 24.8 SE 4 6 1016.2 - 0.0 - - - - - - -
22/05:30pm 25.5 SE 4 7 1016.3 - 0.0 - - - - - - -
22/05:00pm 25.8 SE 4 6 1016.5 - 0.0 - - - - - - -
22/04:30pm 25.9 SE 4 7 1016.6 - 0.0 - - - - - - -
22/04:00pm 25.9 SE 4 8 1016.7 - 0.0 - - - - - - -
22/03:30pm 25.8 SSE 5 8 1017.2 - 0.0 - - - - - - -
22/03:00pm 26.4 S 5 9 1017.5 - 0.0 - - - - - - -
22/02:30pm 26.5 S 5 10 1017.7 - 0.0 - - - - - - -
22/02:00pm 26.3 S 6 10 1017.8 - 0.0 - - - - - - -
22/01:30pm 27.1 SW 3 7 1018.2 - 0.0 - - - - - - -
22/01:00pm 26.3 WSW 4 8 1018.7 - 0.0 - - - - - - -
22/12:30pm 26.1 SSW 2 5 1018.7 - 0.0 - - - - - - -
22/12:00pm 25.9 NNW 2 4 1019.1 - 0.0 - - - - - - -
22/11:30am 25.2 WNW 2 4 1019.6 - 0.0 - - - - - - -
22/11:00am 24.5 WNW 2 4 1020.1 - 0.0 - - - - - - -
22/10:30am 23.7 NW 2 4 1020.4 - 0.0 - - - - - - -
22/10:00am 22.6 NW 2 5 1020.7 - 0.0 - - - - - - -
22/09:30am 20.9 WNW 2 3 1021.0 - 0.0 - - - - - - -
22/09:00am 20.1 N 2 3 1021.0 - 0.0 - - - - - - -
22/08:30am 18.1 N 2 4 1021.3 - 0.0 - - - - - - -
22/08:00am 16.4 CALM 0 2 1021.5 - 0.0 - - - - - - -
22/07:30am 15.0 N 2 2 1021.5 - 0.0 - - - - - - -
22/07:00am 12.7 NNW 2 2 1021.5 - 0.0 - - - - - - -
22/06:30am 12.7 WNW 1 2 1021.4 - 0.0 - - - - - - -
22/06:00am 12.6 N 1 2 1021.2 - 0.0 - - - - - - -
22/05:30am 12.2 N 2 3 1021.1 - 0.0 - - - - - - -
22/05:00am 13.5 CALM 0 0 1021.3 - 0.0 - - - - - - -
22/04:30am 12.4 CALM 0 1 1021.5 - 0.0 - - - - - - -
22/04:00am 13.7 N 2 3 1021.8 - 0.0 - - - - - - -
22/03:30am 13.0 N 1 3 1022.2 - 0.0 - - - - - - -
22/03:00am 11.9 CALM 0 0 1022.6 - 0.0 - - - - - - -
22/02:30am 12.1 N 1 2 1022.9 - 0.0 - - - - - - -
22/02:00am 12.4 NNW 1 3 1023.1 - 0.0 - - - - - - -
22/01:30am 14.4 NNE 2 4 1023.4 - 0.0 - - - - - - -
22/01:00am 13.4 NNE 2 3 1023.8 - 0.0 - - - - - - -
22/12:30am 15.0 CALM 0 0 1024.2 - 0.0 - - - - - - -
22/12:00am 14.9 NNW 1 1 1024.4 - 0.0 - - - - - - -
 
Date/Time
EDT
Temp

°C
Wind Pressure Rain
since 9am
mm
Weather Cloud Vis
km
Sea
Height
m
Swell
Dir
 
Speed
knots
Gust
knots
hPa Trend Height
m
Period
s
Dir
21/11:30pm 15.0 NNW 1 2 1024.5 - 0.0 - - - - - - -
21/11:00pm 14.9 NW 2 2 1024.7 - 0.0 - - - - - - -
21/10:30pm 14.3 NNW 2 4 1024.8 - 0.0 - - - - - - -
21/10:00pm 14.9 WNW 1 2 1024.9 - 0.0 - - - - - - -
21/09:30pm 16.0 ENE 3 4 1024.8 - 0.0 - - - - - - -
21/09:00pm 15.9 CALM 0 1 1024.6 - 0.0 - - - - - - -
21/08:30pm 16.5 CALM 0 0 1024.4 - 0.0 - - - - - - -
21/08:00pm 16.9 E 2 3 1024.4 - 0.0 - - - - - - -
21/07:30pm 18.0 ESE 3 4 1024.2 - 0.0 - - - - - - -
21/07:00pm 20.3 ESE 3 6 1024.0 - 0.0 - - - - - - -
21/06:30pm 21.3 ESE 4 7 1023.9 - 0.0 - - - - - - -
21/06:00pm 22.2 ESE 4 7 1024.0 - 0.0 - - - - - - -
21/05:30pm 22.8 ESE 5 8 1024.0 - 0.0 - - - - - - -
21/05:00pm 23.0 ESE 5 8 1024.2 - 0.0 - - - - - - -
21/04:30pm 22.9 SE 5 9 1024.4 - 0.0 - - - - - - -
21/04:00pm 23.1 SE 5 9 1024.6 - 0.0 - - - - - - -
21/03:30pm 23.1 SSE 5 9 1024.8 - 0.0 - - - - - - -
21/03:00pm 22.9 SSE 5 9 1025.1 - 0.0 - - - - - - -
21/02:30pm 22.5 SE 5 9 1025.7 - 0.0 - - - - - - -
21/02:00pm 22.9 N 4 7 1026.2 - 0.0 - - - - - - -
21/01:30pm 22.6 E 4 7 1026.7 - 0.0 - - - - - - -
21/01:00pm 22.2 ENE 5 9 1027.2 - 0.0 - - - - - - -
21/12:30pm 21.1 ENE 6 9 1027.7 - 0.0 - - - - - - -
21/12:00pm 20.5 E 5 10 1028.1 - 0.0 - - - - - - -
21/11:30am 20.6 ENE 6 10 1028.6 - 0.0 - - - - - - -
21/11:00am 19.2 ENE 6 11 1028.9 - 0.0 - - - - - - -
21/10:30am 18.4 E 4 9 1029.4 - 0.0 - - - - - - -
21/10:00am 16.9 E 5 11 1029.6 - 0.0 - - - - - - -
21/09:30am 16.1 E 5 9 1029.9 - 0.0 - - - - - - -
21/09:00am 14.9 E 6 9 1029.9 - 0.0 - - - - - - -
21/08:30am 14.3 E 4 5 1030.0 - 0.0 - - - - - - -

Other Formats:

Comma delimited format used in spreadsheet applications
http://www.bom.gov.au/fwo/IDV60701/IDV60701.95918.axf

JavaScript Object Notation format (JSON) in row-major order
http://www.bom.gov.au/fwo/IDV60701/IDV60701.95918.json